sensor_id;sensor_type;location;lat;lon;timestamp;P1;durP1;ratioP1;P2;durP2;ratioP2
11809;SDS011;5962;41.566;23.734;2024-02-23T00:00:56;22.23;;;15.63;;
11809;SDS011;5962;41.566;23.734;2024-02-23T00:03:24;19.20;;;14.47;;
11809;SDS011;5962;41.566;23.734;2024-02-23T00:05:53;20.50;;;14.83;;
11809;SDS011;5962;41.566;23.734;2024-02-23T00:08:22;20.37;;;14.93;;
11809;SDS011;5962;41.566;23.734;2024-02-23T00:10:50;22.97;;;15.43;;
11809;SDS011;5962;41.566;23.734;2024-02-23T00:13:18;22.77;;;15.77;;
11809;SDS011;5962;41.566;23.734;2024-02-23T00:15:46;20.40;;;15.20;;
11809;SDS011;5962;41.566;23.734;2024-02-23T00:18:14;24.80;;;14.87;;
11809;SDS011;5962;41.566;23.734;2024-02-23T00:20:43;20.87;;;14.90;;
11809;SDS011;5962;41.566;23.734;2024-02-23T00:23:13;21.07;;;14.90;;
11809;SDS011;5962;41.566;23.734;2024-02-23T00:25:41;21.03;;;16.07;;
11809;SDS011;5962;41.566;23.734;2024-02-23T00:28:09;21.23;;;15.27;;
11809;SDS011;5962;41.566;23.734;2024-02-23T00:30:37;20.90;;;14.90;;
11809;SDS011;5962;41.566;23.734;2024-02-23T00:33:05;21.67;;;15.33;;
11809;SDS011;5962;41.566;23.734;2024-02-23T00:35:33;21.07;;;15.63;;
11809;SDS011;5962;41.566;23.734;2024-02-23T00:38:01;22.00;;;16.47;;
11809;SDS011;5962;41.566;23.734;2024-02-23T00:40:31;21.13;;;14.77;;
11809;SDS011;5962;41.566;23.734;2024-02-23T00:42:59;23.83;;;16.90;;
11809;SDS011;5962;41.566;23.734;2024-02-23T00:45:29;23.87;;;17.10;;
11809;SDS011;5962;41.566;23.734;2024-02-23T00:47:57;23.53;;;17.60;;
11809;SDS011;5962;41.566;23.734;2024-02-23T00:50:25;23.07;;;17.23;;
11809;SDS011;5962;41.566;23.734;2024-02-23T00:52:53;21.60;;;14.13;;
11809;SDS011;5962;41.566;23.734;2024-02-23T00:55:21;16.57;;;13.23;;
11809;SDS011;5962;41.566;23.734;2024-02-23T00:57:53;19.67;;;14.13;;
11809;SDS011;5962;41.566;23.734;2024-02-23T01:00:21;23.00;;;15.13;;
11809;SDS011;5962;41.566;23.734;2024-02-23T01:02:49;18.33;;;13.97;;
11809;SDS011;5962;41.566;23.734;2024-02-23T01:05:18;21.03;;;14.47;;
11809;SDS011;5962;41.566;23.734;2024-02-23T01:07:46;19.97;;;13.37;;
11809;SDS011;5962;41.566;23.734;2024-02-23T01:10:14;19.10;;;14.47;;
11809;SDS011;5962;41.566;23.734;2024-02-23T01:12:42;20.73;;;14.23;;
11809;SDS011;5962;41.566;23.734;2024-02-23T01:15:12;22.53;;;16.23;;
11809;SDS011;5962;41.566;23.734;2024-02-23T01:17:40;20.13;;;15.63;;
11809;SDS011;5962;41.566;23.734;2024-02-23T01:20:08;18.93;;;14.13;;
11809;SDS011;5962;41.566;23.734;2024-02-23T01:22:36;18.37;;;14.23;;
11809;SDS011;5962;41.566;23.734;2024-02-23T01:25:05;36.47;;;25.43;;
11809;SDS011;5962;41.566;23.734;2024-02-23T01:27:33;20.47;;;15.07;;
11809;SDS011;5962;41.566;23.734;2024-02-23T01:30:01;22.73;;;17.07;;
11809;SDS011;5962;41.566;23.734;2024-02-23T01:32:31;24.13;;;17.83;;
11809;SDS011;5962;41.566;23.734;2024-02-23T01:34:59;25.93;;;17.67;;
11809;SDS011;5962;41.566;23.734;2024-02-23T01:37:27;28.20;;;17.73;;
11809;SDS011;5962;41.566;23.734;2024-02-23T01:39:55;25.70;;;17.33;;
11809;SDS011;5962;41.566;23.734;2024-02-23T01:42:23;25.33;;;17.83;;
11809;SDS011;5962;41.566;23.734;2024-02-23T01:44:52;24.40;;;18.77;;
11809;SDS011;5962;41.566;23.734;2024-02-23T01:47:22;25.20;;;17.53;;
11809;SDS011;5962;41.566;23.734;2024-02-23T01:49:53;23.70;;;16.27;;
11809;SDS011;5962;41.566;23.734;2024-02-23T01:52:23;24.77;;;17.17;;
11809;SDS011;5962;41.566;23.734;2024-02-23T01:54:51;23.07;;;16.50;;
11809;SDS011;5962;41.566;23.734;2024-02-23T01:57:19;19.47;;;15.53;;
11809;SDS011;5962;41.566;23.734;2024-02-23T01:59:52;24.63;;;16.00;;
11809;SDS011;5962;41.566;23.734;2024-02-23T02:02:21;20.53;;;14.43;;
11809;SDS011;5962;41.566;23.734;2024-02-23T02:04:49;20.20;;;14.03;;
11809;SDS011;5962;41.566;23.734;2024-02-23T02:07:18;16.60;;;13.33;;
11809;SDS011;5962;41.566;23.734;2024-02-23T02:09:49;18.80;;;14.60;;
11809;SDS011;5962;41.566;23.734;2024-02-23T02:12:25;26.30;;;14.23;;
11809;SDS011;5962;41.566;23.734;2024-02-23T02:14:54;18.77;;;13.83;;
11809;SDS011;5962;41.566;23.734;2024-02-23T02:17:22;23.07;;;15.13;;
11809;SDS011;5962;41.566;23.734;2024-02-23T02:19:50;22.07;;;15.83;;
11809;SDS011;5962;41.566;23.734;2024-02-23T02:22:20;20.70;;;15.27;;
11809;SDS011;5962;41.566;23.734;2024-02-23T02:24:48;19.53;;;14.93;;
11809;SDS011;5962;41.566;23.734;2024-02-23T02:27:16;20.97;;;15.17;;
11809;SDS011;5962;41.566;23.734;2024-02-23T02:29:44;22.73;;;16.73;;
11809;SDS011;5962;41.566;23.734;2024-02-23T02:32:12;23.23;;;18.03;;
11809;SDS011;5962;41.566;23.734;2024-02-23T02:34:40;20.90;;;13.63;;
11809;SDS011;5962;41.566;23.734;2024-02-23T02:37:08;16.93;;;12.43;;
11809;SDS011;5962;41.566;23.734;2024-02-23T02:39:37;18.33;;;13.23;;
11809;SDS011;5962;41.566;23.734;2024-02-23T02:42:05;20.30;;;13.13;;
11809;SDS011;5962;41.566;23.734;2024-02-23T02:44:34;19.17;;;13.40;;
11809;SDS011;5962;41.566;23.734;2024-02-23T02:47:02;18.50;;;13.70;;
11809;SDS011;5962;41.566;23.734;2024-02-23T02:49:30;18.57;;;12.87;;
11809;SDS011;5962;41.566;23.734;2024-02-23T02:51:58;17.97;;;13.10;;
11809;SDS011;5962;41.566;23.734;2024-02-23T02:54:26;18.40;;;13.23;;
11809;SDS011;5962;41.566;23.734;2024-02-23T02:56:55;19.20;;;13.20;;
11809;SDS011;5962;41.566;23.734;2024-02-23T02:59:23;19.33;;;14.40;;
11809;SDS011;5962;41.566;23.734;2024-02-23T03:01:53;20.30;;;14.73;;
11809;SDS011;5962;41.566;23.734;2024-02-23T03:04:21;17.23;;;12.27;;
11809;SDS011;5962;41.566;23.734;2024-02-23T03:06:49;17.93;;;12.30;;
11809;SDS011;5962;41.566;23.734;2024-02-23T03:09:17;15.90;;;12.10;;
11809;SDS011;5962;41.566;23.734;2024-02-23T03:11:45;18.30;;;12.10;;
11809;SDS011;5962;41.566;23.734;2024-02-23T03:14:15;33.53;;;13.50;;
11809;SDS011;5962;41.566;23.734;2024-02-23T03:16:44;18.70;;;13.33;;
11809;SDS011;5962;41.566;23.734;2024-02-23T03:19:14;15.47;;;11.63;;
11809;SDS011;5962;41.566;23.734;2024-02-23T03:21:42;20.83;;;12.23;;
11809;SDS011;5962;41.566;23.734;2024-02-23T03:24:10;17.43;;;12.90;;
11809;SDS011;5962;41.566;23.734;2024-02-23T03:26:38;25.87;;;17.20;;
11809;SDS011;5962;41.566;23.734;2024-02-23T03:29:06;26.33;;;17.60;;
11809;SDS011;5962;41.566;23.734;2024-02-23T03:31:35;24.13;;;16.60;;
11809;SDS011;5962;41.566;23.734;2024-02-23T03:34:03;19.70;;;14.03;;
11809;SDS011;5962;41.566;23.734;2024-02-23T03:36:31;22.27;;;13.80;;
11809;SDS011;5962;41.566;23.734;2024-02-23T03:38:59;22.53;;;13.87;;
11809;SDS011;5962;41.566;23.734;2024-02-23T03:41:27;19.53;;;14.67;;
11809;SDS011;5962;41.566;23.734;2024-02-23T03:43:55;20.20;;;14.60;;
11809;SDS011;5962;41.566;23.734;2024-02-23T03:46:23;18.43;;;13.37;;
11809;SDS011;5962;41.566;23.734;2024-02-23T03:48:52;18.67;;;13.70;;
11809;SDS011;5962;41.566;23.734;2024-02-23T03:51:20;23.00;;;13.57;;
11809;SDS011;5962;41.566;23.734;2024-02-23T03:53:48;19.50;;;13.57;;
11809;SDS011;5962;41.566;23.734;2024-02-23T03:56:16;29.30;;;13.67;;
11809;SDS011;5962;41.566;23.734;2024-02-23T03:58:44;19.63;;;14.27;;
11809;SDS011;5962;41.566;23.734;2024-02-23T04:01:12;19.33;;;13.70;;
11809;SDS011;5962;41.566;23.734;2024-02-23T04:03:40;21.57;;;15.03;;
11809;SDS011;5962;41.566;23.734;2024-02-23T04:06:09;21.20;;;14.47;;
11809;SDS011;5962;41.566;23.734;2024-02-23T04:08:37;23.90;;;15.93;;
11809;SDS011;5962;41.566;23.734;2024-02-23T04:11:05;22.13;;;16.13;;
11809;SDS011;5962;41.566;23.734;2024-02-23T04:13:33;20.67;;;14.77;;
11809;SDS011;5962;41.566;23.734;2024-02-23T04:16:01;20.17;;;13.90;;
11809;SDS011;5962;41.566;23.734;2024-02-23T04:18:29;17.90;;;13.43;;
11809;SDS011;5962;41.566;23.734;2024-02-23T04:20:57;18.27;;;12.77;;
11809;SDS011;5962;41.566;23.734;2024-02-23T04:23:27;20.20;;;13.70;;
11809;SDS011;5962;41.566;23.734;2024-02-23T04:25:55;20.53;;;13.60;;
11809;SDS011;5962;41.566;23.734;2024-02-23T04:28:23;22.13;;;14.17;;
11809;SDS011;5962;41.566;23.734;2024-02-23T04:30:52;20.00;;;14.63;;
11809;SDS011;5962;41.566;23.734;2024-02-23T04:33:20;27.67;;;18.50;;
11809;SDS011;5962;41.566;23.734;2024-02-23T04:35:49;76.13;;;27.00;;
11809;SDS011;5962;41.566;23.734;2024-02-23T04:38:17;53.67;;;23.57;;
11809;SDS011;5962;41.566;23.734;2024-02-23T04:40:46;44.73;;;21.87;;
11809;SDS011;5962;41.566;23.734;2024-02-23T04:43:14;34.40;;;17.50;;
11809;SDS011;5962;41.566;23.734;2024-02-23T04:45:42;31.63;;;17.93;;
11809;SDS011;5962;41.566;23.734;2024-02-23T04:48:10;24.43;;;16.07;;
11809;SDS011;5962;41.566;23.734;2024-02-23T04:50:38;22.47;;;15.97;;
11809;SDS011;5962;41.566;23.734;2024-02-23T04:53:06;21.03;;;14.10;;
11809;SDS011;5962;41.566;23.734;2024-02-23T04:55:34;22.00;;;14.43;;
11809;SDS011;5962;41.566;23.734;2024-02-23T04:58:03;24.27;;;14.80;;
11809;SDS011;5962;41.566;23.734;2024-02-23T05:00:31;18.27;;;13.53;;
11809;SDS011;5962;41.566;23.734;2024-02-23T05:03:00;17.77;;;12.03;;
11809;SDS011;5962;41.566;23.734;2024-02-23T05:05:30;17.67;;;12.93;;
11809;SDS011;5962;41.566;23.734;2024-02-23T05:07:58;18.63;;;13.47;;
11809;SDS011;5962;41.566;23.734;2024-02-23T05:10:26;28.23;;;13.33;;
11809;SDS011;5962;41.566;23.734;2024-02-23T05:12:54;19.33;;;13.30;;
11809;SDS011;5962;41.566;23.734;2024-02-23T05:15:23;34.07;;;19.10;;
11809;SDS011;5962;41.566;23.734;2024-02-23T05:17:51;29.40;;;17.10;;
11809;SDS011;5962;41.566;23.734;2024-02-23T05:20:19;59.33;;;34.50;;
11809;SDS011;5962;41.566;23.734;2024-02-23T05:22:48;50.03;;;34.07;;
11809;SDS011;5962;41.566;23.734;2024-02-23T05:25:16;54.40;;;34.37;;
11809;SDS011;5962;41.566;23.734;2024-02-23T05:27:44;49.73;;;32.27;;
11809;SDS011;5962;41.566;23.734;2024-02-23T05:30:12;42.53;;;27.80;;
11809;SDS011;5962;41.566;23.734;2024-02-23T05:32:42;45.90;;;28.77;;
11809;SDS011;5962;41.566;23.734;2024-02-23T05:35:10;42.07;;;29.07;;
11809;SDS011;5962;41.566;23.734;2024-02-23T05:37:38;43.07;;;27.60;;
11809;SDS011;5962;41.566;23.734;2024-02-23T05:40:06;38.77;;;26.83;;
11809;SDS011;5962;41.566;23.734;2024-02-23T05:42:36;35.20;;;25.57;;
11809;SDS011;5962;41.566;23.734;2024-02-23T05:45:06;37.33;;;27.60;;
11809;SDS011;5962;41.566;23.734;2024-02-23T05:47:35;38.83;;;26.47;;
11809;SDS011;5962;41.566;23.734;2024-02-23T05:50:05;42.37;;;25.27;;
11809;SDS011;5962;41.566;23.734;2024-02-23T05:52:35;37.87;;;23.50;;
11809;SDS011;5962;41.566;23.734;2024-02-23T05:55:03;41.63;;;25.40;;
11809;SDS011;5962;41.566;23.734;2024-02-23T05:57:32;47.27;;;29.07;;
11809;SDS011;5962;41.566;23.734;2024-02-23T06:00:00;34.43;;;21.03;;
11809;SDS011;5962;41.566;23.734;2024-02-23T06:02:28;33.13;;;22.70;;
11809;SDS011;5962;41.566;23.734;2024-02-23T06:04:56;36.13;;;23.17;;
11809;SDS011;5962;41.566;23.734;2024-02-23T06:07:25;32.37;;;21.60;;
11809;SDS011;5962;41.566;23.734;2024-02-23T06:09:55;40.27;;;27.47;;
11809;SDS011;5962;41.566;23.734;2024-02-23T06:12:23;40.37;;;25.60;;
11809;SDS011;5962;41.566;23.734;2024-02-23T06:14:52;34.13;;;23.43;;
11809;SDS011;5962;41.566;23.734;2024-02-23T06:17:21;36.50;;;22.10;;
11809;SDS011;5962;41.566;23.734;2024-02-23T06:19:50;42.10;;;24.33;;
11809;SDS011;5962;41.566;23.734;2024-02-23T06:22:19;32.37;;;21.37;;
11809;SDS011;5962;41.566;23.734;2024-02-23T06:24:50;31.53;;;20.53;;
11809;SDS011;5962;41.566;23.734;2024-02-23T06:27:36;33.83;;;22.40;;
11809;SDS011;5962;41.566;23.734;2024-02-23T06:30:04;35.17;;;25.93;;
11809;SDS011;5962;41.566;23.734;2024-02-23T06:32:33;38.03;;;25.23;;
11809;SDS011;5962;41.566;23.734;2024-02-23T06:35:01;33.40;;;22.83;;
11809;SDS011;5962;41.566;23.734;2024-02-23T06:37:30;34.07;;;22.33;;
11809;SDS011;5962;41.566;23.734;2024-02-23T06:39:59;34.67;;;24.23;;
11809;SDS011;5962;41.566;23.734;2024-02-23T06:42:27;35.27;;;25.20;;
11809;SDS011;5962;41.566;23.734;2024-02-23T06:44:55;35.87;;;24.87;;
11809;SDS011;5962;41.566;23.734;2024-02-23T06:47:23;38.37;;;24.07;;
11809;SDS011;5962;41.566;23.734;2024-02-23T06:49:51;38.50;;;24.20;;
11809;SDS011;5962;41.566;23.734;2024-02-23T06:52:19;38.00;;;23.13;;
11809;SDS011;5962;41.566;23.734;2024-02-23T06:54:47;34.13;;;23.90;;
11809;SDS011;5962;41.566;23.734;2024-02-23T06:57:17;46.30;;;22.73;;
11809;SDS011;5962;41.566;23.734;2024-02-23T06:59:45;50.83;;;23.83;;
11809;SDS011;5962;41.566;23.734;2024-02-23T07:02:13;28.97;;;20.50;;
11809;SDS011;5962;41.566;23.734;2024-02-23T07:04:41;25.10;;;17.77;;
11809;SDS011;5962;41.566;23.734;2024-02-23T07:07:09;28.13;;;18.23;;
11809;SDS011;5962;41.566;23.734;2024-02-23T07:09:38;31.80;;;23.23;;
11809;SDS011;5962;41.566;23.734;2024-02-23T07:12:06;33.07;;;23.20;;
11809;SDS011;5962;41.566;23.734;2024-02-23T07:14:38;27.47;;;19.80;;
11809;SDS011;5962;41.566;23.734;2024-02-23T07:17:05;31.97;;;22.47;;
11809;SDS011;5962;41.566;23.734;2024-02-23T07:19:34;35.13;;;24.17;;
11809;SDS011;5962;41.566;23.734;2024-02-23T07:22:02;28.70;;;22.27;;
11809;SDS011;5962;41.566;23.734;2024-02-23T07:24:30;29.97;;;22.43;;
11809;SDS011;5962;41.566;23.734;2024-02-23T07:26:59;28.67;;;22.43;;
11809;SDS011;5962;41.566;23.734;2024-02-23T07:29:27;29.07;;;20.33;;
11809;SDS011;5962;41.566;23.734;2024-02-23T07:31:56;29.93;;;20.50;;
11809;SDS011;5962;41.566;23.734;2024-02-23T07:34:24;29.07;;;20.63;;
11809;SDS011;5962;41.566;23.734;2024-02-23T07:36:53;29.17;;;21.13;;
11809;SDS011;5962;41.566;23.734;2024-02-23T07:39:21;27.53;;;19.63;;
11809;SDS011;5962;41.566;23.734;2024-02-23T07:41:49;30.23;;;22.30;;
11809;SDS011;5962;41.566;23.734;2024-02-23T07:44:17;27.30;;;20.20;;
11809;SDS011;5962;41.566;23.734;2024-02-23T07:46:45;31.20;;;22.87;;
11809;SDS011;5962;41.566;23.734;2024-02-23T07:49:14;32.27;;;23.63;;
11809;SDS011;5962;41.566;23.734;2024-02-23T07:51:43;29.43;;;20.80;;
11809;SDS011;5962;41.566;23.734;2024-02-23T07:54:11;30.07;;;22.33;;
11809;SDS011;5962;41.566;23.734;2024-02-23T07:56:39;28.23;;;21.20;;
11809;SDS011;5962;41.566;23.734;2024-02-23T07:59:07;25.80;;;19.20;;
11809;SDS011;5962;41.566;23.734;2024-02-23T08:01:35;25.37;;;17.53;;
11809;SDS011;5962;41.566;23.734;2024-02-23T08:04:03;21.80;;;16.70;;
11809;SDS011;5962;41.566;23.734;2024-02-23T08:06:33;20.23;;;14.93;;
11809;SDS011;5962;41.566;23.734;2024-02-23T08:09:01;20.33;;;15.80;;
11809;SDS011;5962;41.566;23.734;2024-02-23T08:11:29;20.57;;;15.87;;
11809;SDS011;5962;41.566;23.734;2024-02-23T08:13:58;22.23;;;14.80;;
11809;SDS011;5962;41.566;23.734;2024-02-23T08:16:26;18.40;;;14.40;;
11809;SDS011;5962;41.566;23.734;2024-02-23T08:18:54;20.80;;;15.50;;
11809;SDS011;5962;41.566;23.734;2024-02-23T08:21:22;22.53;;;16.03;;
11809;SDS011;5962;41.566;23.734;2024-02-23T08:23:51;19.80;;;15.30;;
11809;SDS011;5962;41.566;23.734;2024-02-23T08:26:19;18.70;;;14.33;;
11809;SDS011;5962;41.566;23.734;2024-02-23T08:28:48;21.43;;;14.70;;
11809;SDS011;5962;41.566;23.734;2024-02-23T08:31:16;25.47;;;16.73;;
11809;SDS011;5962;41.566;23.734;2024-02-23T08:33:44;20.87;;;15.57;;
11809;SDS011;5962;41.566;23.734;2024-02-23T08:36:13;22.03;;;16.07;;
11809;SDS011;5962;41.566;23.734;2024-02-23T08:38:41;23.30;;;18.10;;
11809;SDS011;5962;41.566;23.734;2024-02-23T08:41:10;23.60;;;17.47;;
11809;SDS011;5962;41.566;23.734;2024-02-23T08:43:38;26.97;;;18.60;;
11809;SDS011;5962;41.566;23.734;2024-02-23T08:46:06;22.80;;;17.50;;
11809;SDS011;5962;41.566;23.734;2024-02-23T08:48:35;27.00;;;18.87;;
11809;SDS011;5962;41.566;23.734;2024-02-23T08:51:03;24.33;;;17.73;;
11809;SDS011;5962;41.566;23.734;2024-02-23T08:53:31;22.40;;;16.37;;
11809;SDS011;5962;41.566;23.734;2024-02-23T08:55:59;23.10;;;17.00;;
11809;SDS011;5962;41.566;23.734;2024-02-23T08:58:29;19.23;;;15.10;;
11809;SDS011;5962;41.566;23.734;2024-02-23T09:00:57;21.73;;;16.13;;
11809;SDS011;5962;41.566;23.734;2024-02-23T09:03:25;18.53;;;15.63;;
11809;SDS011;5962;41.566;23.734;2024-02-23T09:05:54;20.43;;;14.80;;
11809;SDS011;5962;41.566;23.734;2024-02-23T09:08:23;18.33;;;14.37;;
11809;SDS011;5962;41.566;23.734;2024-02-23T09:10:52;23.20;;;16.07;;
11809;SDS011;5962;41.566;23.734;2024-02-23T09:13:20;18.90;;;14.67;;
11809;SDS011;5962;41.566;23.734;2024-02-23T09:15:52;19.83;;;14.83;;
11809;SDS011;5962;41.566;23.734;2024-02-23T09:18:20;19.63;;;13.70;;
11809;SDS011;5962;41.566;23.734;2024-02-23T09:20:48;23.13;;;14.33;;
11809;SDS011;5962;41.566;23.734;2024-02-23T09:23:16;17.37;;;13.47;;
11809;SDS011;5962;41.566;23.734;2024-02-23T09:25:45;18.30;;;14.03;;
11809;SDS011;5962;41.566;23.734;2024-02-23T09:28:13;19.57;;;14.83;;
11809;SDS011;5962;41.566;23.734;2024-02-23T09:30:41;16.10;;;12.77;;
11809;SDS011;5962;41.566;23.734;2024-02-23T09:33:11;22.70;;;16.60;;
11809;SDS011;5962;41.566;23.734;2024-02-23T09:35:39;22.30;;;16.17;;
11809;SDS011;5962;41.566;23.734;2024-02-23T09:38:07;20.10;;;15.20;;
11809;SDS011;5962;41.566;23.734;2024-02-23T09:40:35;20.13;;;14.70;;
11809;SDS011;5962;41.566;23.734;2024-02-23T09:43:03;18.43;;;14.33;;
11809;SDS011;5962;41.566;23.734;2024-02-23T09:45:35;19.03;;;12.97;;
11809;SDS011;5962;41.566;23.734;2024-02-23T09:48:05;16.00;;;12.37;;
11809;SDS011;5962;41.566;23.734;2024-02-23T09:50:36;20.43;;;12.30;;
11809;SDS011;5962;41.566;23.734;2024-02-23T09:53:05;14.57;;;10.87;;
11809;SDS011;5962;41.566;23.734;2024-02-23T09:55:35;13.37;;;11.73;;
11809;SDS011;5962;41.566;23.734;2024-02-23T09:58:03;22.90;;;12.10;;
11809;SDS011;5962;41.566;23.734;2024-02-23T10:00:32;13.03;;;10.80;;
11809;SDS011;5962;41.566;23.734;2024-02-23T10:03:02;12.90;;;10.30;;
11809;SDS011;5962;41.566;23.734;2024-02-23T10:05:32;28.20;;;13.83;;
11809;SDS011;5962;41.566;23.734;2024-02-23T10:08:02;14.97;;;11.07;;
11809;SDS011;5962;41.566;23.734;2024-02-23T10:10:32;15.33;;;10.00;;
11809;SDS011;5962;41.566;23.734;2024-02-23T10:13:01;12.33;;;10.90;;
11809;SDS011;5962;41.566;23.734;2024-02-23T10:15:31;13.03;;;10.83;;
11809;SDS011;5962;41.566;23.734;2024-02-23T10:17:59;11.93;;;10.03;;
11809;SDS011;5962;41.566;23.734;2024-02-23T10:20:27;16.07;;;10.83;;
11809;SDS011;5962;41.566;23.734;2024-02-23T10:22:56;14.30;;;10.63;;
11809;SDS011;5962;41.566;23.734;2024-02-23T10:25:25;17.70;;;10.87;;
11809;SDS011;5962;41.566;23.734;2024-02-23T10:27:53;14.23;;;10.93;;
11809;SDS011;5962;41.566;23.734;2024-02-23T10:30:22;32.20;;;16.83;;
11809;SDS011;5962;41.566;23.734;2024-02-23T10:32:50;12.43;;;9.03;;
11809;SDS011;5962;41.566;23.734;2024-02-23T10:35:23;11.40;;;10.20;;
11809;SDS011;5962;41.566;23.734;2024-02-23T10:37:52;10.33;;;8.10;;
11809;SDS011;5962;41.566;23.734;2024-02-23T10:40:22;13.73;;;8.80;;
11809;SDS011;5962;41.566;23.734;2024-02-23T10:42:51;10.87;;;8.53;;
11809;SDS011;5962;41.566;23.734;2024-02-23T10:45:24;11.43;;;8.27;;
11809;SDS011;5962;41.566;23.734;2024-02-23T10:47:52;11.63;;;8.97;;
11809;SDS011;5962;41.566;23.734;2024-02-23T10:50:21;9.03;;;7.93;;
11809;SDS011;5962;41.566;23.734;2024-02-23T10:52:50;11.30;;;7.80;;
11809;SDS011;5962;41.566;23.734;2024-02-23T10:55:19;10.87;;;8.60;;
11809;SDS011;5962;41.566;23.734;2024-02-23T10:57:48;9.77;;;7.90;;
11809;SDS011;5962;41.566;23.734;2024-02-23T11:00:21;11.13;;;8.20;;
11809;SDS011;5962;41.566;23.734;2024-02-23T11:02:52;11.63;;;8.67;;
11809;SDS011;5962;41.566;23.734;2024-02-23T11:05:22;13.00;;;9.47;;
11809;SDS011;5962;41.566;23.734;2024-02-23T11:07:51;7.47;;;6.43;;
11809;SDS011;5962;41.566;23.734;2024-02-23T11:10:19;9.33;;;7.93;;
11809;SDS011;5962;41.566;23.734;2024-02-23T11:12:58;17.73;;;15.47;;
11809;SDS011;5962;41.566;23.734;2024-02-23T11:15:27;14.40;;;12.83;;
11809;SDS011;5962;41.566;23.734;2024-02-23T11:17:56;10.80;;;9.70;;
11809;SDS011;5962;41.566;23.734;2024-02-23T11:20:24;7.50;;;6.80;;
11809;SDS011;5962;41.566;23.734;2024-02-23T11:23:02;7.63;;;6.37;;
11809;SDS011;5962;41.566;23.734;2024-02-23T11:25:41;6.87;;;6.20;;
11809;SDS011;5962;41.566;23.734;2024-02-23T11:28:10;8.33;;;6.43;;
11809;SDS011;5962;41.566;23.734;2024-02-23T11:30:49;6.47;;;5.80;;
11809;SDS011;5962;41.566;23.734;2024-02-23T11:33:25;7.03;;;5.40;;
11809;SDS011;5962;41.566;23.734;2024-02-23T11:35:53;6.30;;;5.70;;
11809;SDS011;5962;41.566;23.734;2024-02-23T11:38:32;6.37;;;5.43;;
11809;SDS011;5962;41.566;23.734;2024-02-23T11:41:00;5.53;;;5.00;;
11809;SDS011;5962;41.566;23.734;2024-02-23T11:43:31;6.47;;;5.00;;
11809;SDS011;5962;41.566;23.734;2024-02-23T11:46:02;4.60;;;4.20;;
11809;SDS011;5962;41.566;23.734;2024-02-23T11:48:30;6.77;;;4.53;;
11809;SDS011;5962;41.566;23.734;2024-02-23T11:50:59;7.40;;;5.20;;
11809;SDS011;5962;41.566;23.734;2024-02-23T11:53:27;5.97;;;5.37;;
11809;SDS011;5962;41.566;23.734;2024-02-23T11:55:55;6.20;;;3.73;;
11809;SDS011;5962;41.566;23.734;2024-02-23T11:58:23;4.17;;;3.73;;
11809;SDS011;5962;41.566;23.734;2024-02-23T12:00:53;3.57;;;3.27;;
11809;SDS011;5962;41.566;23.734;2024-02-23T12:03:21;4.83;;;4.20;;
11809;SDS011;5962;41.566;23.734;2024-02-23T12:05:51;4.63;;;4.23;;
11809;SDS011;5962;41.566;23.734;2024-02-23T12:08:19;3.50;;;3.17;;
11809;SDS011;5962;41.566;23.734;2024-02-23T12:10:48;3.57;;;3.27;;
11809;SDS011;5962;41.566;23.734;2024-02-23T12:13:16;8.80;;;4.07;;
11809;SDS011;5962;41.566;23.734;2024-02-23T12:15:44;3.03;;;2.73;;
11809;SDS011;5962;41.566;23.734;2024-02-23T12:18:13;7.40;;;3.73;;
11809;SDS011;5962;41.566;23.734;2024-02-23T12:20:42;4.93;;;3.40;;
11809;SDS011;5962;41.566;23.734;2024-02-23T12:23:11;7.17;;;3.87;;
11809;SDS011;5962;41.566;23.734;2024-02-23T12:25:39;5.53;;;3.90;;
11809;SDS011;5962;41.566;23.734;2024-02-23T12:28:08;4.20;;;2.77;;
11809;SDS011;5962;41.566;23.734;2024-02-23T12:30:36;2.20;;;2.03;;
11809;SDS011;5962;41.566;23.734;2024-02-23T12:33:04;2.00;;;1.90;;
11809;SDS011;5962;41.566;23.734;2024-02-23T12:35:35;3.30;;;2.97;;
11809;SDS011;5962;41.566;23.734;2024-02-23T12:38:03;2.83;;;2.20;;
11809;SDS011;5962;41.566;23.734;2024-02-23T12:40:31;2.77;;;2.37;;
11809;SDS011;5962;41.566;23.734;2024-02-23T12:42:59;3.70;;;2.27;;
11809;SDS011;5962;41.566;23.734;2024-02-23T12:45:27;2.37;;;2.17;;
11809;SDS011;5962;41.566;23.734;2024-02-23T12:47:55;2.80;;;2.60;;
11809;SDS011;5962;41.566;23.734;2024-02-23T12:50:23;5.40;;;3.37;;
11809;SDS011;5962;41.566;23.734;2024-02-23T12:52:53;6.03;;;3.43;;
11809;SDS011;5962;41.566;23.734;2024-02-23T12:55:21;2.97;;;2.63;;
11809;SDS011;5962;41.566;23.734;2024-02-23T12:57:49;2.80;;;2.60;;
11809;SDS011;5962;41.566;23.734;2024-02-23T13:00:17;2.83;;;2.63;;
11809;SDS011;5962;41.566;23.734;2024-02-23T13:02:45;3.70;;;3.13;;
11809;SDS011;5962;41.566;23.734;2024-02-23T13:05:13;2.90;;;2.63;;
11809;SDS011;5962;41.566;23.734;2024-02-23T13:07:42;2.50;;;2.40;;
11809;SDS011;5962;41.566;23.734;2024-02-23T13:10:11;2.33;;;2.23;;
11809;SDS011;5962;41.566;23.734;2024-02-23T13:12:39;2.73;;;2.53;;
11809;SDS011;5962;41.566;23.734;2024-02-23T13:15:07;5.67;;;2.77;;
11809;SDS011;5962;41.566;23.734;2024-02-23T13:17:35;2.97;;;2.70;;
11809;SDS011;5962;41.566;23.734;2024-02-23T13:20:04;2.40;;;2.30;;
11809;SDS011;5962;41.566;23.734;2024-02-23T13:22:33;2.77;;;2.57;;
11809;SDS011;5962;41.566;23.734;2024-02-23T13:25:01;3.63;;;3.13;;
11809;SDS011;5962;41.566;23.734;2024-02-23T13:27:30;5.67;;;3.47;;
11809;SDS011;5962;41.566;23.734;2024-02-23T13:29:58;3.30;;;2.93;;
11809;SDS011;5962;41.566;23.734;2024-02-23T13:32:26;2.77;;;2.43;;
11809;SDS011;5962;41.566;23.734;2024-02-23T13:34:54;2.40;;;2.30;;
11809;SDS011;5962;41.566;23.734;2024-02-23T13:37:22;2.57;;;2.37;;
11809;SDS011;5962;41.566;23.734;2024-02-23T13:39:50;2.67;;;2.27;;
11809;SDS011;5962;41.566;23.734;2024-02-23T13:42:18;2.70;;;2.50;;
11809;SDS011;5962;41.566;23.734;2024-02-23T13:44:48;2.83;;;2.63;;
11809;SDS011;5962;41.566;23.734;2024-02-23T13:47:16;3.00;;;2.80;;
11809;SDS011;5962;41.566;23.734;2024-02-23T13:49:44;2.90;;;2.40;;
11809;SDS011;5962;41.566;23.734;2024-02-23T13:52:12;2.40;;;2.30;;
11809;SDS011;5962;41.566;23.734;2024-02-23T13:54:40;5.70;;;3.30;;
11809;SDS011;5962;41.566;23.734;2024-02-23T13:57:09;4.10;;;3.50;;
11809;SDS011;5962;41.566;23.734;2024-02-23T13:59:37;7.67;;;4.00;;
11809;SDS011;5962;41.566;23.734;2024-02-23T14:02:07;6.00;;;4.60;;
11809;SDS011;5962;41.566;23.734;2024-02-23T14:04:35;4.47;;;4.07;;
11809;SDS011;5962;41.566;23.734;2024-02-23T14:07:03;5.07;;;3.53;;
11809;SDS011;5962;41.566;23.734;2024-02-23T14:09:31;6.43;;;3.50;;
11809;SDS011;5962;41.566;23.734;2024-02-23T14:11:59;3.90;;;3.43;;
11809;SDS011;5962;41.566;23.734;2024-02-23T14:14:27;4.80;;;3.43;;
11809;SDS011;5962;41.566;23.734;2024-02-23T14:16:55;3.93;;;3.20;;
11809;SDS011;5962;41.566;23.734;2024-02-23T14:19:24;5.57;;;3.47;;
11809;SDS011;5962;41.566;23.734;2024-02-23T14:21:52;3.90;;;3.17;;
11809;SDS011;5962;41.566;23.734;2024-02-23T14:24:20;4.97;;;3.90;;
11809;SDS011;5962;41.566;23.734;2024-02-23T14:26:48;3.70;;;3.03;;
11809;SDS011;5962;41.566;23.734;2024-02-23T14:29:16;3.57;;;3.27;;
11809;SDS011;5962;41.566;23.734;2024-02-23T14:31:45;3.90;;;3.10;;
11809;SDS011;5962;41.566;23.734;2024-02-23T14:34:13;3.50;;;3.20;;
11809;SDS011;5962;41.566;23.734;2024-02-23T14:36:42;2.60;;;2.40;;